sensor_id;sensor_type;location;lat;lon;timestamp;P1;durP1;ratioP1;P2;durP2;ratioP2
40322;SDS011;26030;51.164;17.100;2023-04-24T00:00:18;4.70;;;3.90;;
40322;SDS011;26030;51.164;17.100;2023-04-24T00:05:42;5.20;;;3.90;;
40322;SDS011;26030;51.164;17.100;2023-04-24T00:10:46;4.20;;;3.20;;
40322;SDS011;26030;51.164;17.100;2023-04-24T00:15:50;4.40;;;4.00;;
40322;SDS011;26030;51.164;17.100;2023-04-24T00:20:54;4.30;;;4.00;;
40322;SDS011;26030;51.164;17.100;2023-04-24T00:25:58;5.00;;;4.10;;
40322;SDS011;26030;51.164;17.100;2023-04-24T00:31:02;5.00;;;3.70;;
40322;SDS011;26030;51.164;17.100;2023-04-24T00:36:06;4.40;;;3.80;;
40322;SDS011;26030;51.164;17.100;2023-04-24T00:41:11;4.30;;;3.90;;
40322;SDS011;26030;51.164;17.100;2023-04-24T00:46:16;4.80;;;4.20;;
40322;SDS011;26030;51.164;17.100;2023-04-24T00:51:20;6.50;;;3.90;;
40322;SDS011;26030;51.164;17.100;2023-04-24T00:56:24;6.70;;;3.70;;
40322;SDS011;26030;51.164;17.100;2023-04-24T01:01:29;6.80;;;3.80;;
40322;SDS011;26030;51.164;17.100;2023-04-24T01:06:34;4.80;;;3.90;;
40322;SDS011;26030;51.164;17.100;2023-04-24T01:11:41;4.50;;;3.80;;
40322;SDS011;26030;51.164;17.100;2023-04-24T01:16:47;5.10;;;4.30;;
40322;SDS011;26030;51.164;17.100;2023-04-24T01:21:53;4.40;;;3.90;;
40322;SDS011;26030;51.164;17.100;2023-04-24T01:26:58;4.50;;;3.90;;
40322;SDS011;26030;51.164;17.100;2023-04-24T01:32:03;4.40;;;4.00;;
40322;SDS011;26030;51.164;17.100;2023-04-24T01:37:07;5.00;;;3.50;;
40322;SDS011;26030;51.164;17.100;2023-04-24T01:42:12;4.30;;;3.50;;
40322;SDS011;26030;51.164;17.100;2023-04-24T01:47:17;4.60;;;3.60;;
40322;SDS011;26030;51.164;17.100;2023-04-24T01:52:21;6.10;;;3.50;;
40322;SDS011;26030;51.164;17.100;2023-04-24T01:57:25;4.60;;;4.00;;
40322;SDS011;26030;51.164;17.100;2023-04-24T02:02:30;4.20;;;3.90;;
40322;SDS011;26030;51.164;17.100;2023-04-24T02:07:34;4.20;;;3.80;;
40322;SDS011;26030;51.164;17.100;2023-04-24T02:12:38;4.70;;;3.60;;
40322;SDS011;26030;51.164;17.100;2023-04-24T02:17:42;4.50;;;4.10;;
40322;SDS011;26030;51.164;17.100;2023-04-24T02:22:47;4.40;;;3.80;;
40322;SDS011;26030;51.164;17.100;2023-04-24T02:27:50;5.50;;;3.70;;
40322;SDS011;26030;51.164;17.100;2023-04-24T02:32:54;3.70;;;3.40;;
40322;SDS011;26030;51.164;17.100;2023-04-24T02:37:59;3.80;;;3.50;;
40322;SDS011;26030;51.164;17.100;2023-04-24T02:43:03;3.20;;;3.00;;
40322;SDS011;26030;51.164;17.100;2023-04-24T02:48:07;3.70;;;3.40;;
40322;SDS011;26030;51.164;17.100;2023-04-24T02:53:11;5.10;;;4.10;;
40322;SDS011;26030;51.164;17.100;2023-04-24T02:58:15;4.10;;;3.40;;
40322;SDS011;26030;51.164;17.100;2023-04-24T03:03:21;4.20;;;3.80;;
40322;SDS011;26030;51.164;17.100;2023-04-24T03:08:25;4.50;;;4.10;;
40322;SDS011;26030;51.164;17.100;2023-04-24T03:13:29;4.30;;;3.80;;
40322;SDS011;26030;51.164;17.100;2023-04-24T03:18:34;4.80;;;4.30;;
40322;SDS011;26030;51.164;17.100;2023-04-24T03:23:39;5.60;;;4.10;;
40322;SDS011;26030;51.164;17.100;2023-04-24T03:28:43;5.10;;;4.50;;
40322;SDS011;26030;51.164;17.100;2023-04-24T03:33:47;4.70;;;4.10;;
40322;SDS011;26030;51.164;17.100;2023-04-24T03:38:52;4.60;;;4.20;;
40322;SDS011;26030;51.164;17.100;2023-04-24T03:44:05;5.10;;;4.60;;
40322;SDS011;26030;51.164;17.100;2023-04-24T03:49:10;4.50;;;4.10;;
40322;SDS011;26030;51.164;17.100;2023-04-24T03:54:17;5.00;;;4.50;;
40322;SDS011;26030;51.164;17.100;2023-04-24T03:59:22;6.40;;;5.40;;
40322;SDS011;26030;51.164;17.100;2023-04-24T04:04:36;4.60;;;4.20;;
40322;SDS011;26030;51.164;17.100;2023-04-24T04:09:41;5.50;;;4.90;;
40322;SDS011;26030;51.164;17.100;2023-04-24T04:14:46;5.40;;;4.60;;
40322;SDS011;26030;51.164;17.100;2023-04-24T04:19:50;5.70;;;4.50;;
40322;SDS011;26030;51.164;17.100;2023-04-24T04:24:54;5.90;;;5.40;;
40322;SDS011;26030;51.164;17.100;2023-04-24T04:30:00;5.00;;;4.60;;
40322;SDS011;26030;51.164;17.100;2023-04-24T04:35:15;5.10;;;4.40;;
40322;SDS011;26030;51.164;17.100;2023-04-24T04:40:20;5.70;;;5.00;;
40322;SDS011;26030;51.164;17.100;2023-04-24T04:45:33;5.00;;;4.50;;
40322;SDS011;26030;51.164;17.100;2023-04-24T04:51:07;5.40;;;4.80;;
40322;SDS011;26030;51.164;17.100;2023-04-24T04:56:12;5.60;;;5.10;;
40322;SDS011;26030;51.164;17.100;2023-04-24T05:01:18;7.90;;;4.70;;
40322;SDS011;26030;51.164;17.100;2023-04-24T05:06:23;5.40;;;4.90;;
40322;SDS011;26030;51.164;17.100;2023-04-24T05:11:28;6.00;;;4.70;;
40322;SDS011;26030;51.164;17.100;2023-04-24T05:16:33;5.30;;;4.80;;
40322;SDS011;26030;51.164;17.100;2023-04-24T05:21:37;5.60;;;4.60;;
40322;SDS011;26030;51.164;17.100;2023-04-24T05:26:43;5.30;;;4.80;;
40322;SDS011;26030;51.164;17.100;2023-04-24T05:31:48;4.80;;;4.30;;
40322;SDS011;26030;51.164;17.100;2023-04-24T05:36:52;5.70;;;5.20;;
40322;SDS011;26030;51.164;17.100;2023-04-24T05:41:57;5.20;;;4.50;;
40322;SDS011;26030;51.164;17.100;2023-04-24T05:47:01;5.30;;;4.70;;
40322;SDS011;26030;51.164;17.100;2023-04-24T05:52:06;6.10;;;4.60;;
40322;SDS011;26030;51.164;17.100;2023-04-24T05:57:13;5.70;;;4.40;;
40322;SDS011;26030;51.164;17.100;2023-04-24T06:02:25;4.90;;;4.40;;
40322;SDS011;26030;51.164;17.100;2023-04-24T06:07:31;12.40;;;4.90;;
40322;SDS011;26030;51.164;17.100;2023-04-24T06:12:37;5.60;;;4.50;;
40322;SDS011;26030;51.164;17.100;2023-04-24T06:17:45;9.80;;;4.10;;
40322;SDS011;26030;51.164;17.100;2023-04-24T06:22:51;4.80;;;4.30;;
40322;SDS011;26030;51.164;17.100;2023-04-24T06:27:56;5.00;;;4.20;;
40322;SDS011;26030;51.164;17.100;2023-04-24T06:33:00;7.40;;;4.70;;
40322;SDS011;26030;51.164;17.100;2023-04-24T06:38:21;8.10;;;5.00;;
40322;SDS011;26030;51.164;17.100;2023-04-24T06:43:25;4.70;;;4.30;;
40322;SDS011;26030;51.164;17.100;2023-04-24T06:48:29;5.60;;;4.80;;
40322;SDS011;26030;51.164;17.100;2023-04-24T06:53:33;11.60;;;4.90;;
40322;SDS011;26030;51.164;17.100;2023-04-24T06:58:38;7.30;;;4.50;;
40322;SDS011;26030;51.164;17.100;2023-04-24T07:03:42;11.90;;;5.20;;
40322;SDS011;26030;51.164;17.100;2023-04-24T07:08:46;8.70;;;4.70;;
40322;SDS011;26030;51.164;17.100;2023-04-24T07:13:51;13.60;;;4.80;;
40322;SDS011;26030;51.164;17.100;2023-04-24T07:18:55;7.10;;;3.80;;
40322;SDS011;26030;51.164;17.100;2023-04-24T07:23:59;4.60;;;4.20;;
40322;SDS011;26030;51.164;17.100;2023-04-24T07:29:03;15.10;;;5.50;;
40322;SDS011;26030;51.164;17.100;2023-04-24T07:34:07;7.30;;;4.40;;
40322;SDS011;26030;51.164;17.100;2023-04-24T07:39:12;5.80;;;4.10;;
40322;SDS011;26030;51.164;17.100;2023-04-24T07:44:16;8.50;;;3.70;;
40322;SDS011;26030;51.164;17.100;2023-04-24T07:49:20;6.70;;;4.60;;
40322;SDS011;26030;51.164;17.100;2023-04-24T07:54:24;8.00;;;3.80;;
40322;SDS011;26030;51.164;17.100;2023-04-24T07:59:28;6.00;;;4.20;;
40322;SDS011;26030;51.164;17.100;2023-04-24T08:04:32;5.00;;;4.50;;
40322;SDS011;26030;51.164;17.100;2023-04-24T08:09:36;5.20;;;4.60;;
40322;SDS011;26030;51.164;17.100;2023-04-24T08:14:40;5.30;;;4.80;;
40322;SDS011;26030;51.164;17.100;2023-04-24T08:19:45;5.80;;;4.30;;
40322;SDS011;26030;51.164;17.100;2023-04-24T08:24:52;4.70;;;4.10;;
40322;SDS011;26030;51.164;17.100;2023-04-24T08:29:57;6.80;;;4.10;;
40322;SDS011;26030;51.164;17.100;2023-04-24T08:35:02;7.40;;;4.30;;
40322;SDS011;26030;51.164;17.100;2023-04-24T08:40:13;6.60;;;4.40;;
40322;SDS011;26030;51.164;17.100;2023-04-24T08:45:20;5.10;;;4.30;;
40322;SDS011;26030;51.164;17.100;2023-04-24T08:50:25;6.30;;;4.20;;
40322;SDS011;26030;51.164;17.100;2023-04-24T08:55:30;4.40;;;3.90;;
40322;SDS011;26030;51.164;17.100;2023-04-24T09:00:34;4.80;;;4.20;;
40322;SDS011;26030;51.164;17.100;2023-04-24T09:05:39;4.20;;;3.60;;
40322;SDS011;26030;51.164;17.100;2023-04-24T09:10:44;5.10;;;3.90;;
40322;SDS011;26030;51.164;17.100;2023-04-24T09:15:51;8.30;;;3.70;;
40322;SDS011;26030;51.164;17.100;2023-04-24T09:21:03;4.70;;;3.70;;
40322;SDS011;26030;51.164;17.100;2023-04-24T09:26:09;5.50;;;3.90;;
40322;SDS011;26030;51.164;17.100;2023-04-24T09:31:16;4.30;;;3.90;;
40322;SDS011;26030;51.164;17.100;2023-04-24T09:36:32;5.80;;;4.00;;
40322;SDS011;26030;51.164;17.100;2023-04-24T09:41:53;4.70;;;4.30;;
40322;SDS011;26030;51.164;17.100;2023-04-24T09:47:00;5.70;;;3.70;;
40322;SDS011;26030;51.164;17.100;2023-04-24T09:52:11;4.00;;;3.60;;
40322;SDS011;26030;51.164;17.100;2023-04-24T09:57:15;4.30;;;3.90;;
40322;SDS011;26030;51.164;17.100;2023-04-24T10:02:20;4.10;;;3.80;;
40322;SDS011;26030;51.164;17.100;2023-04-24T10:07:27;6.60;;;3.70;;
40322;SDS011;26030;51.164;17.100;2023-04-24T10:12:33;5.50;;;3.20;;
40322;SDS011;26030;51.164;17.100;2023-04-24T10:17:39;4.20;;;3.60;;
40322;SDS011;26030;51.164;17.100;2023-04-24T10:22:45;17.90;;;3.80;;
40322;SDS011;26030;51.164;17.100;2023-04-24T10:27:54;6.90;;;4.00;;
40322;SDS011;26030;51.164;17.100;2023-04-24T10:33:04;6.80;;;4.20;;
40322;SDS011;26030;51.164;17.100;2023-04-24T10:38:15;6.80;;;3.70;;
40322;SDS011;26030;51.164;17.100;2023-04-24T10:43:20;6.70;;;3.60;;
40322;SDS011;26030;51.164;17.100;2023-04-24T10:48:26;7.50;;;5.70;;
40322;SDS011;26030;51.164;17.100;2023-04-24T10:53:34;5.40;;;3.40;;
40322;SDS011;26030;51.164;17.100;2023-04-24T10:58:40;4.30;;;3.80;;
40322;SDS011;26030;51.164;17.100;2023-04-24T11:03:53;4.30;;;3.90;;
40322;SDS011;26030;51.164;17.100;2023-04-24T11:09:06;5.80;;;3.60;;
40322;SDS011;26030;51.164;17.100;2023-04-24T11:14:14;3.80;;;3.50;;
40322;SDS011;26030;51.164;17.100;2023-04-24T11:19:24;4.30;;;3.50;;
40322;SDS011;26030;51.164;17.100;2023-04-24T11:34:57;4.70;;;3.50;;
40322;SDS011;26030;51.164;17.100;2023-04-24T11:45:15;3.90;;;3.40;;
40322;SDS011;26030;51.164;17.100;2023-04-24T11:50:21;3.50;;;3.20;;
40322;SDS011;26030;51.164;17.100;2023-04-24T11:55:28;3.50;;;3.20;;
40322;SDS011;26030;51.164;17.100;2023-04-24T12:00:32;3.70;;;3.10;;
40322;SDS011;26030;51.164;17.100;2023-04-24T12:05:40;4.10;;;3.60;;
40322;SDS011;26030;51.164;17.100;2023-04-24T12:10:51;3.60;;;3.20;;
40322;SDS011;26030;51.164;17.100;2023-04-24T12:15:56;3.30;;;3.10;;
40322;SDS011;26030;51.164;17.100;2023-04-24T12:21:22;3.30;;;3.00;;
40322;SDS011;26030;51.164;17.100;2023-04-24T12:26:27;3.30;;;3.00;;
40322;SDS011;26030;51.164;17.100;2023-04-24T12:31:32;4.00;;;3.50;;
40322;SDS011;26030;51.164;17.100;2023-04-24T12:36:36;3.90;;;3.10;;
40322;SDS011;26030;51.164;17.100;2023-04-24T12:41:50;3.10;;;2.90;;
40322;SDS011;26030;51.164;17.100;2023-04-24T12:46:55;3.50;;;3.20;;
40322;SDS011;26030;51.164;17.100;2023-04-24T12:51:59;4.10;;;3.80;;
40322;SDS011;26030;51.164;17.100;2023-04-24T12:57:03;3.30;;;3.10;;
40322;SDS011;26030;51.164;17.100;2023-04-24T13:02:07;3.20;;;2.90;;
40322;SDS011;26030;51.164;17.100;2023-04-24T13:07:13;4.00;;;3.60;;
40322;SDS011;26030;51.164;17.100;2023-04-24T13:12:18;3.10;;;2.90;;
40322;SDS011;26030;51.164;17.100;2023-04-24T13:17:23;3.40;;;3.20;;
40322;SDS011;26030;51.164;17.100;2023-04-24T13:22:27;3.40;;;3.00;;
40322;SDS011;26030;51.164;17.100;2023-04-24T13:27:31;3.40;;;3.10;;
40322;SDS011;26030;51.164;17.100;2023-04-24T13:32:35;3.30;;;3.00;;
40322;SDS011;26030;51.164;17.100;2023-04-24T13:37:40;3.70;;;3.40;;
40322;SDS011;26030;51.164;17.100;2023-04-24T13:42:44;3.30;;;3.10;;
40322;SDS011;26030;51.164;17.100;2023-04-24T13:47:48;3.10;;;2.90;;
40322;SDS011;26030;51.164;17.100;2023-04-24T13:52:54;3.10;;;2.90;;
40322;SDS011;26030;51.164;17.100;2023-04-24T13:58:02;2.90;;;2.70;;
40322;SDS011;26030;51.164;17.100;2023-04-24T14:03:06;2.90;;;2.70;;
40322;SDS011;26030;51.164;17.100;2023-04-24T14:08:10;2.80;;;2.60;;
40322;SDS011;26030;51.164;17.100;2023-04-24T14:13:15;7.40;;;3.40;;
40322;SDS011;26030;51.164;17.100;2023-04-24T14:18:19;8.00;;;3.20;;
40322;SDS011;26030;51.164;17.100;2023-04-24T14:23:23;9.10;;;3.10;;
40322;SDS011;26030;51.164;17.100;2023-04-24T14:28:27;7.20;;;2.90;;
40322;SDS011;26030;51.164;17.100;2023-04-24T14:33:32;6.90;;;2.70;;
40322;SDS011;26030;51.164;17.100;2023-04-24T14:38:36;5.70;;;3.50;;
40322;SDS011;26030;51.164;17.100;2023-04-24T14:43:40;4.00;;;2.90;;
40322;SDS011;26030;51.164;17.100;2023-04-24T14:48:45;3.50;;;3.10;;
40322;SDS011;26030;51.164;17.100;2023-04-24T14:53:49;4.10;;;3.00;;
40322;SDS011;26030;51.164;17.100;2023-04-24T14:58:53;3.40;;;3.00;;
40322;SDS011;26030;51.164;17.100;2023-04-24T15:03:57;6.60;;;2.80;;
40322;SDS011;26030;51.164;17.100;2023-04-24T15:09:02;3.10;;;2.80;;
40322;SDS011;26030;51.164;17.100;2023-04-24T15:14:06;3.30;;;3.10;;
40322;SDS011;26030;51.164;17.100;2023-04-24T15:19:10;3.30;;;3.00;;
40322;SDS011;26030;51.164;17.100;2023-04-24T15:24:14;14.20;;;7.60;;
40322;SDS011;26030;51.164;17.100;2023-04-24T15:29:19;94.60;;;36.30;;
40322;SDS011;26030;51.164;17.100;2023-04-24T15:34:23;128.90;;;52.80;;
40322;SDS011;26030;51.164;17.100;2023-04-24T15:39:27;231.30;;;87.20;;
40322;SDS011;26030;51.164;17.100;2023-04-24T15:44:32;187.50;;;74.70;;
40322;SDS011;26030;51.164;17.100;2023-04-24T15:49:36;165.00;;;67.40;;
40322;SDS011;26030;51.164;17.100;2023-04-24T15:54:40;156.90;;;64.20;;
40322;SDS011;26030;51.164;17.100;2023-04-24T15:59:45;146.30;;;60.60;;
40322;SDS011;26030;51.164;17.100;2023-04-24T16:04:49;149.50;;;60.20;;
40322;SDS011;26030;51.164;17.100;2023-04-24T16:09:54;139.70;;;58.50;;
40322;SDS011;26030;51.164;17.100;2023-04-24T16:14:59;121.70;;;51.10;;
40322;SDS011;26030;51.164;17.100;2023-04-24T16:20:06;118.30;;;51.00;;
40322;SDS011;26030;51.164;17.100;2023-04-24T16:25:10;119.80;;;50.60;;
40322;SDS011;26030;51.164;17.100;2023-04-24T16:30:14;120.60;;;51.90;;
40322;SDS011;26030;51.164;17.100;2023-04-24T16:35:19;105.20;;;47.10;;
40322;SDS011;26030;51.164;17.100;2023-04-24T16:40:24;108.50;;;46.90;;
40322;SDS011;26030;51.164;17.100;2023-04-24T16:45:29;99.10;;;44.10;;
40322;SDS011;26030;51.164;17.100;2023-04-24T16:50:33;100.30;;;43.90;;
40322;SDS011;26030;51.164;17.100;2023-04-24T16:55:38;94.70;;;42.10;;
40322;SDS011;26030;51.164;17.100;2023-04-24T17:00:43;101.50;;;42.50;;
40322;SDS011;26030;51.164;17.100;2023-04-24T17:05:49;81.40;;;36.50;;
40322;SDS011;26030;51.164;17.100;2023-04-24T17:10:56;78.90;;;37.60;;
40322;SDS011;26030;51.164;17.100;2023-04-24T17:16:01;84.20;;;36.80;;
40322;SDS011;26030;51.164;17.100;2023-04-24T17:21:07;83.80;;;38.30;;
40322;SDS011;26030;51.164;17.100;2023-04-24T17:26:14;75.80;;;36.50;;
40322;SDS011;26030;51.164;17.100;2023-04-24T17:31:20;85.70;;;34.80;;
40322;SDS011;26030;51.164;17.100;2023-04-24T17:36:29;72.60;;;33.40;;
40322;SDS011;26030;51.164;17.100;2023-04-24T17:41:34;68.20;;;31.10;;
40322;SDS011;26030;51.164;17.100;2023-04-24T17:46:40;66.00;;;29.50;;
40322;SDS011;26030;51.164;17.100;2023-04-24T17:51:49;69.50;;;31.40;;
40322;SDS011;26030;51.164;17.100;2023-04-24T17:56:54;60.70;;;29.90;;
40322;SDS011;26030;51.164;17.100;2023-04-24T18:01:59;62.80;;;29.60;;
40322;SDS011;26030;51.164;17.100;2023-04-24T18:07:05;55.10;;;26.40;;
40322;SDS011;26030;51.164;17.100;2023-04-24T18:12:10;59.50;;;27.70;;
40322;SDS011;26030;51.164;17.100;2023-04-24T18:17:15;55.50;;;26.20;;
40322;SDS011;26030;51.164;17.100;2023-04-24T18:22:20;45.30;;;23.90;;
40322;SDS011;26030;51.164;17.100;2023-04-24T18:27:27;50.50;;;24.00;;
40322;SDS011;26030;51.164;17.100;2023-04-24T18:32:37;49.80;;;25.00;;
40322;SDS011;26030;51.164;17.100;2023-04-24T18:37:44;41.80;;;22.40;;
40322;SDS011;26030;51.164;17.100;2023-04-24T18:42:50;44.90;;;22.80;;
40322;SDS011;26030;51.164;17.100;2023-04-24T18:47:56;52.50;;;22.30;;
40322;SDS011;26030;51.164;17.100;2023-04-24T18:53:02;40.40;;;20.70;;
40322;SDS011;26030;51.164;17.100;2023-04-24T18:58:07;39.60;;;21.50;;
40322;SDS011;26030;51.164;17.100;2023-04-24T19:03:12;45.20;;;20.90;;
40322;SDS011;26030;51.164;17.100;2023-04-24T19:08:19;31.90;;;18.40;;
40322;SDS011;26030;51.164;17.100;2023-04-24T19:13:25;33.50;;;18.00;;
40322;SDS011;26030;51.164;17.100;2023-04-24T19:18:31;36.90;;;18.40;;
40322;SDS011;26030;51.164;17.100;2023-04-24T19:23:37;36.30;;;18.10;;
40322;SDS011;26030;51.164;17.100;2023-04-24T19:28:44;40.60;;;18.40;;
40322;SDS011;26030;51.164;17.100;2023-04-24T19:33:50;31.20;;;18.20;;
40322;SDS011;26030;51.164;17.100;2023-04-24T19:38:55;38.20;;;17.40;;
40322;SDS011;26030;51.164;17.100;2023-04-24T19:44:03;30.50;;;16.50;;
40322;SDS011;26030;51.164;17.100;2023-04-24T19:49:09;29.50;;;17.40;;
40322;SDS011;26030;51.164;17.100;2023-04-24T19:54:15;32.90;;;17.60;;
40322;SDS011;26030;51.164;17.100;2023-04-24T19:59:20;25.50;;;14.90;;
40322;SDS011;26030;51.164;17.100;2023-04-24T20:04:25;27.70;;;16.00;;
40322;SDS011;26030;51.164;17.100;2023-04-24T20:09:30;26.80;;;15.90;;
40322;SDS011;26030;51.164;17.100;2023-04-24T20:14:35;25.00;;;15.80;;
40322;SDS011;26030;51.164;17.100;2023-04-24T20:19:40;27.10;;;15.50;;
40322;SDS011;26030;51.164;17.100;2023-04-24T20:24:46;25.80;;;14.90;;
40322;SDS011;26030;51.164;17.100;2023-04-24T20:29:50;24.70;;;14.80;;
40322;SDS011;26030;51.164;17.100;2023-04-24T20:34:54;23.80;;;14.40;;
40322;SDS011;26030;51.164;17.100;2023-04-24T20:39:58;27.90;;;14.90;;
40322;SDS011;26030;51.164;17.100;2023-04-24T20:45:03;24.50;;;15.00;;
40322;SDS011;26030;51.164;17.100;2023-04-24T20:50:08;28.10;;;14.00;;
40322;SDS011;26030;51.164;17.100;2023-04-24T20:55:12;29.10;;;15.20;;
40322;SDS011;26030;51.164;17.100;2023-04-24T21:00:17;22.30;;;14.00;;
40322;SDS011;26030;51.164;17.100;2023-04-24T21:05:21;20.40;;;13.30;;
40322;SDS011;26030;51.164;17.100;2023-04-24T21:10:25;24.90;;;13.30;;
40322;SDS011;26030;51.164;17.100;2023-04-24T21:15:29;19.10;;;12.40;;
40322;SDS011;26030;51.164;17.100;2023-04-24T21:20:34;22.90;;;13.30;;
40322;SDS011;26030;51.164;17.100;2023-04-24T21:25:38;18.70;;;12.10;;
40322;SDS011;26030;51.164;17.100;2023-04-24T21:30:42;19.50;;;12.10;;
40322;SDS011;26030;51.164;17.100;2023-04-24T21:35:47;18.60;;;11.70;;
40322;SDS011;26030;51.164;17.100;2023-04-24T21:40:51;18.90;;;12.50;;
40322;SDS011;26030;51.164;17.100;2023-04-24T21:45:55;19.50;;;12.00;;
40322;SDS011;26030;51.164;17.100;2023-04-24T21:50:59;16.60;;;10.90;;
40322;SDS011;26030;51.164;17.100;2023-04-24T21:56:03;20.00;;;11.60;;
40322;SDS011;26030;51.164;17.100;2023-04-24T22:01:08;17.20;;;11.00;;
40322;SDS011;26030;51.164;17.100;2023-04-24T22:06:12;17.70;;;10.80;;
40322;SDS011;26030;51.164;17.100;2023-04-24T22:11:17;14.60;;;10.70;;
40322;SDS011;26030;51.164;17.100;2023-04-24T22:16:29;17.50;;;10.70;;
40322;SDS011;26030;51.164;17.100;2023-04-24T22:21:33;22.50;;;10.90;;
40322;SDS011;26030;51.164;17.100;2023-04-24T22:26:38;21.50;;;12.10;;
40322;SDS011;26030;51.164;17.100;2023-04-24T22:31:43;16.30;;;10.40;;
40322;SDS011;26030;51.164;17.100;2023-04-24T22:36:47;20.20;;;9.60;;
40322;SDS011;26030;51.164;17.100;2023-04-24T22:41:51;15.50;;;9.40;;
40322;SDS011;26030;51.164;17.100;2023-04-24T22:46:55;11.80;;;8.60;;
40322;SDS011;26030;51.164;17.100;2023-04-24T22:52:00;15.00;;;9.30;;
40322;SDS011;26030;51.164;17.100;2023-04-24T22:57:07;13.90;;;8.90;;
40322;SDS011;26030;51.164;17.100;2023-04-24T23:02:12;12.10;;;8.60;;
40322;SDS011;26030;51.164;17.100;2023-04-24T23:07:16;10.50;;;7.60;;
40322;SDS011;26030;51.164;17.100;2023-04-24T23:12:20;12.80;;;8.20;;
40322;SDS011;26030;51.164;17.100;2023-04-24T23:17:24;11.90;;;7.70;;
40322;SDS011;26030;51.164;17.100;2023-04-24T23:22:29;12.10;;;8.30;;
40322;SDS011;26030;51.164;17.100;2023-04-24T23:27:34;11.70;;;8.00;;
40322;SDS011;26030;51.164;17.100;2023-04-24T23:32:38;10.00;;;7.40;;
40322;SDS011;26030;51.164;17.100;2023-04-24T23:37:42;10.00;;;7.40;;
40322;SDS011;26030;51.164;17.100;2023-04-24T23:42:46;10.60;;;7.10;;
40322;SDS011;26030;51.164;17.100;2023-04-24T23:48:02;9.00;;;7.00;;
40322;SDS011;26030;51.164;17.100;2023-04-24T23:53:07;12.70;;;7.60;;
40322;SDS011;26030;51.164;17.100;2023-04-24T23:58:11;11.60;;;7.00;;
